sensor_id;sensor_type;location;lat;lon;timestamp;P1;durP1;ratioP1;P2;durP2;ratioP2
1885;SDS011;943;51.568;6.998;2023-07-24T00:00:50;7.40;;;5.60;;
1885;SDS011;943;51.568;6.998;2023-07-24T00:03:18;8.83;;;5.53;;
1885;SDS011;943;51.568;6.998;2023-07-24T00:05:46;8.20;;;5.40;;
1885;SDS011;943;51.568;6.998;2023-07-24T00:08:14;9.43;;;5.03;;
1885;SDS011;943;51.568;6.998;2023-07-24T00:10:43;7.20;;;5.60;;
1885;SDS011;943;51.568;6.998;2023-07-24T00:13:11;10.33;;;5.07;;
1885;SDS011;943;51.568;6.998;2023-07-24T00:15:39;7.80;;;4.93;;
1885;SDS011;943;51.568;6.998;2023-07-24T00:18:07;5.97;;;4.70;;
1885;SDS011;943;51.568;6.998;2023-07-24T00:20:35;7.30;;;4.50;;
1885;SDS011;943;51.568;6.998;2023-07-24T00:23:03;7.67;;;4.97;;
1885;SDS011;943;51.568;6.998;2023-07-24T00:25:31;6.53;;;5.37;;
1885;SDS011;943;51.568;6.998;2023-07-24T00:27:59;8.90;;;4.93;;
1885;SDS011;943;51.568;6.998;2023-07-24T00:30:27;5.10;;;3.90;;
1885;SDS011;943;51.568;6.998;2023-07-24T00:32:55;8.57;;;4.40;;
1885;SDS011;943;51.568;6.998;2023-07-24T00:35:23;11.90;;;5.07;;
1885;SDS011;943;51.568;6.998;2023-07-24T00:37:52;8.20;;;4.97;;
1885;SDS011;943;51.568;6.998;2023-07-24T00:40:19;6.30;;;4.20;;
1885;SDS011;943;51.568;6.998;2023-07-24T00:42:47;7.60;;;4.80;;
1885;SDS011;943;51.568;6.998;2023-07-24T00:45:16;11.60;;;5.20;;
1885;SDS011;943;51.568;6.998;2023-07-24T00:47:44;6.10;;;4.30;;
1885;SDS011;943;51.568;6.998;2023-07-24T00:50:13;7.90;;;4.97;;
1885;SDS011;943;51.568;6.998;2023-07-24T00:52:41;7.80;;;5.87;;
1885;SDS011;943;51.568;6.998;2023-07-24T00:55:10;8.77;;;4.90;;
1885;SDS011;943;51.568;6.998;2023-07-24T00:57:43;7.80;;;5.73;;
1885;SDS011;943;51.568;6.998;2023-07-24T01:00:11;9.03;;;5.70;;
1885;SDS011;943;51.568;6.998;2023-07-24T01:02:40;7.30;;;5.60;;
1885;SDS011;943;51.568;6.998;2023-07-24T01:05:10;8.03;;;5.37;;
1885;SDS011;943;51.568;6.998;2023-07-24T01:07:41;12.53;;;5.00;;
1885;SDS011;943;51.568;6.998;2023-07-24T01:10:11;8.07;;;4.87;;
1885;SDS011;943;51.568;6.998;2023-07-24T01:12:39;8.27;;;5.43;;
1885;SDS011;943;51.568;6.998;2023-07-24T01:15:32;9.33;;;5.50;;
1885;SDS011;943;51.568;6.998;2023-07-24T01:18:16;8.13;;;6.03;;
1885;SDS011;943;51.568;6.998;2023-07-24T01:20:53;12.73;;;7.07;;
1885;SDS011;943;51.568;6.998;2023-07-24T01:26:29;11.27;;;7.90;;
1885;SDS011;943;51.568;6.998;2023-07-24T01:28:59;9.73;;;7.40;;
1885;SDS011;943;51.568;6.998;2023-07-24T01:31:27;12.50;;;8.27;;
1885;SDS011;943;51.568;6.998;2023-07-24T01:33:54;9.37;;;7.47;;
1885;SDS011;943;51.568;6.998;2023-07-24T01:36:22;11.57;;;7.87;;
1885;SDS011;943;51.568;6.998;2023-07-24T01:38:51;11.00;;;7.53;;
1885;SDS011;943;51.568;6.998;2023-07-24T01:41:20;10.27;;;6.93;;
1885;SDS011;943;51.568;6.998;2023-07-24T01:43:50;9.73;;;7.43;;
1885;SDS011;943;51.568;6.998;2023-07-24T01:46:17;9.97;;;7.20;;
1885;SDS011;943;51.568;6.998;2023-07-24T01:48:45;11.87;;;8.23;;
1885;SDS011;943;51.568;6.998;2023-07-24T01:51:13;9.33;;;7.10;;
1885;SDS011;943;51.568;6.998;2023-07-24T01:53:42;8.77;;;7.07;;
1885;SDS011;943;51.568;6.998;2023-07-24T01:56:10;12.33;;;7.60;;
1885;SDS011;943;51.568;6.998;2023-07-24T01:58:38;13.30;;;7.53;;
1885;SDS011;943;51.568;6.998;2023-07-24T02:01:06;9.70;;;6.60;;
1885;SDS011;943;51.568;6.998;2023-07-24T02:03:33;12.50;;;6.30;;
1885;SDS011;943;51.568;6.998;2023-07-24T02:06:02;9.50;;;5.97;;
1885;SDS011;943;51.568;6.998;2023-07-24T02:08:30;8.53;;;6.10;;
1885;SDS011;943;51.568;6.998;2023-07-24T02:10:58;7.67;;;5.83;;
1885;SDS011;943;51.568;6.998;2023-07-24T02:13:26;9.23;;;5.77;;
1885;SDS011;943;51.568;6.998;2023-07-24T02:15:54;9.37;;;6.07;;
1885;SDS011;943;51.568;6.998;2023-07-24T02:18:26;9.67;;;6.77;;
1885;SDS011;943;51.568;6.998;2023-07-24T02:20:56;13.60;;;6.80;;
1885;SDS011;943;51.568;6.998;2023-07-24T02:23:28;10.10;;;6.37;;
1885;SDS011;943;51.568;6.998;2023-07-24T02:25:58;12.13;;;6.17;;
1885;SDS011;943;51.568;6.998;2023-07-24T02:28:26;11.70;;;6.10;;
1885;SDS011;943;51.568;6.998;2023-07-24T02:30:54;8.43;;;6.03;;
1885;SDS011;943;51.568;6.998;2023-07-24T02:33:24;8.33;;;6.37;;
1885;SDS011;943;51.568;6.998;2023-07-24T02:35:53;10.27;;;6.50;;
1885;SDS011;943;51.568;6.998;2023-07-24T02:38:21;12.63;;;6.80;;
1885;SDS011;943;51.568;6.998;2023-07-24T02:40:49;8.33;;;5.83;;
1885;SDS011;943;51.568;6.998;2023-07-24T02:43:16;11.73;;;6.87;;
1885;SDS011;943;51.568;6.998;2023-07-24T02:45:44;9.70;;;6.23;;
1885;SDS011;943;51.568;6.998;2023-07-24T02:48:12;10.20;;;6.10;;
1885;SDS011;943;51.568;6.998;2023-07-24T02:50:41;10.60;;;6.73;;
1885;SDS011;943;51.568;6.998;2023-07-24T02:53:08;7.97;;;6.07;;
1885;SDS011;943;51.568;6.998;2023-07-24T02:55:41;7.93;;;6.13;;
1885;SDS011;943;51.568;6.998;2023-07-24T02:58:13;9.80;;;5.73;;
1885;SDS011;943;51.568;6.998;2023-07-24T03:00:43;8.63;;;5.50;;
1885;SDS011;943;51.568;6.998;2023-07-24T03:03:10;10.33;;;6.73;;
1885;SDS011;943;51.568;6.998;2023-07-24T03:05:38;9.70;;;6.57;;
1885;SDS011;943;51.568;6.998;2023-07-24T03:08:06;10.60;;;6.80;;
1885;SDS011;943;51.568;6.998;2023-07-24T03:10:34;9.97;;;7.03;;
1885;SDS011;943;51.568;6.998;2023-07-24T03:13:02;10.87;;;6.40;;
1885;SDS011;943;51.568;6.998;2023-07-24T03:15:30;11.30;;;7.50;;
1885;SDS011;943;51.568;6.998;2023-07-24T03:17:57;15.60;;;7.10;;
1885;SDS011;943;51.568;6.998;2023-07-24T03:20:25;11.30;;;6.57;;
1885;SDS011;943;51.568;6.998;2023-07-24T03:22:53;8.97;;;6.43;;
1885;SDS011;943;51.568;6.998;2023-07-24T03:25:21;11.70;;;5.87;;
1885;SDS011;943;51.568;6.998;2023-07-24T03:27:50;9.93;;;6.50;;
1885;SDS011;943;51.568;6.998;2023-07-24T03:30:19;11.37;;;7.50;;
1885;SDS011;943;51.568;6.998;2023-07-24T03:32:47;8.17;;;6.60;;
1885;SDS011;943;51.568;6.998;2023-07-24T03:35:15;9.00;;;6.37;;
1885;SDS011;943;51.568;6.998;2023-07-24T03:37:43;13.07;;;6.80;;
1885;SDS011;943;51.568;6.998;2023-07-24T03:40:11;12.63;;;7.57;;
1885;SDS011;943;51.568;6.998;2023-07-24T03:42:40;10.03;;;6.27;;
1885;SDS011;943;51.568;6.998;2023-07-24T03:45:09;13.67;;;8.40;;
1885;SDS011;943;51.568;6.998;2023-07-24T03:47:37;12.03;;;6.97;;
1885;SDS011;943;51.568;6.998;2023-07-24T03:50:08;17.83;;;7.20;;
1885;SDS011;943;51.568;6.998;2023-07-24T03:52:36;12.23;;;7.43;;
1885;SDS011;943;51.568;6.998;2023-07-24T03:55:05;12.23;;;6.80;;
1885;SDS011;943;51.568;6.998;2023-07-24T03:57:34;12.93;;;7.20;;
1885;SDS011;943;51.568;6.998;2023-07-24T04:00:03;11.30;;;7.17;;
1885;SDS011;943;51.568;6.998;2023-07-24T04:02:39;11.67;;;7.60;;
1885;SDS011;943;51.568;6.998;2023-07-24T04:05:08;16.57;;;8.20;;
1885;SDS011;943;51.568;6.998;2023-07-24T04:07:36;10.53;;;7.70;;
1885;SDS011;943;51.568;6.998;2023-07-24T04:10:04;14.10;;;7.57;;
1885;SDS011;943;51.568;6.998;2023-07-24T04:12:33;10.33;;;7.37;;
1885;SDS011;943;51.568;6.998;2023-07-24T04:15:01;14.30;;;6.80;;
1885;SDS011;943;51.568;6.998;2023-07-24T04:17:30;13.80;;;6.97;;
1885;SDS011;943;51.568;6.998;2023-07-24T04:19:59;9.73;;;6.70;;
1885;SDS011;943;51.568;6.998;2023-07-24T04:22:27;12.17;;;6.30;;
1885;SDS011;943;51.568;6.998;2023-07-24T04:24:55;12.17;;;7.60;;
1885;SDS011;943;51.568;6.998;2023-07-24T04:27:22;14.63;;;8.27;;
1885;SDS011;943;51.568;6.998;2023-07-24T04:29:50;14.17;;;6.80;;
1885;SDS011;943;51.568;6.998;2023-07-24T04:32:18;16.30;;;7.77;;
1885;SDS011;943;51.568;6.998;2023-07-24T04:34:46;13.93;;;7.57;;
1885;SDS011;943;51.568;6.998;2023-07-24T04:37:14;14.37;;;8.57;;
1885;SDS011;943;51.568;6.998;2023-07-24T04:39:42;11.33;;;7.50;;
1885;SDS011;943;51.568;6.998;2023-07-24T04:42:10;11.20;;;7.77;;
1885;SDS011;943;51.568;6.998;2023-07-24T04:44:39;12.23;;;6.43;;
1885;SDS011;943;51.568;6.998;2023-07-24T04:47:07;11.63;;;7.70;;
1885;SDS011;943;51.568;6.998;2023-07-24T04:49:35;18.23;;;8.07;;
1885;SDS011;943;51.568;6.998;2023-07-24T04:52:03;16.50;;;8.03;;
1885;SDS011;943;51.568;6.998;2023-07-24T04:54:32;13.23;;;7.53;;
1885;SDS011;943;51.568;6.998;2023-07-24T04:57:00;12.37;;;7.10;;
1885;SDS011;943;51.568;6.998;2023-07-24T04:59:28;10.97;;;7.47;;
1885;SDS011;943;51.568;6.998;2023-07-24T05:01:56;15.13;;;7.63;;
1885;SDS011;943;51.568;6.998;2023-07-24T05:04:23;12.83;;;8.17;;
1885;SDS011;943;51.568;6.998;2023-07-24T05:06:51;13.60;;;8.77;;
1885;SDS011;943;51.568;6.998;2023-07-24T05:09:19;13.90;;;8.20;;
1885;SDS011;943;51.568;6.998;2023-07-24T05:11:48;13.40;;;7.70;;
1885;SDS011;943;51.568;6.998;2023-07-24T05:14:16;14.33;;;6.90;;
1885;SDS011;943;51.568;6.998;2023-07-24T05:16:44;12.00;;;7.90;;
1885;SDS011;943;51.568;6.998;2023-07-24T05:19:12;11.00;;;7.73;;
1885;SDS011;943;51.568;6.998;2023-07-24T05:21:40;11.37;;;7.43;;
1885;SDS011;943;51.568;6.998;2023-07-24T05:24:07;16.83;;;8.57;;
1885;SDS011;943;51.568;6.998;2023-07-24T05:26:35;11.50;;;7.53;;
1885;SDS011;943;51.568;6.998;2023-07-24T05:29:03;11.97;;;7.80;;
1885;SDS011;943;51.568;6.998;2023-07-24T05:31:31;13.20;;;8.97;;
1885;SDS011;943;51.568;6.998;2023-07-24T05:34:02;12.50;;;8.50;;
1885;SDS011;943;51.568;6.998;2023-07-24T05:36:31;13.23;;;7.73;;
1885;SDS011;943;51.568;6.998;2023-07-24T05:38:59;13.37;;;9.27;;
1885;SDS011;943;51.568;6.998;2023-07-24T05:41:27;10.53;;;7.97;;
1885;SDS011;943;51.568;6.998;2023-07-24T05:43:55;12.80;;;8.10;;
1885;SDS011;943;51.568;6.998;2023-07-24T05:46:23;10.50;;;7.80;;
1885;SDS011;943;51.568;6.998;2023-07-24T05:48:51;11.80;;;8.03;;
1885;SDS011;943;51.568;6.998;2023-07-24T05:51:19;12.37;;;7.80;;
1885;SDS011;943;51.568;6.998;2023-07-24T05:53:47;12.83;;;7.60;;
1885;SDS011;943;51.568;6.998;2023-07-24T05:56:15;14.03;;;7.60;;
1885;SDS011;943;51.568;6.998;2023-07-24T05:58:42;13.60;;;7.47;;
1885;SDS011;943;51.568;6.998;2023-07-24T06:01:10;9.57;;;6.57;;
1885;SDS011;943;51.568;6.998;2023-07-24T06:03:38;11.87;;;6.80;;
1885;SDS011;943;51.568;6.998;2023-07-24T06:06:06;11.33;;;6.90;;
1885;SDS011;943;51.568;6.998;2023-07-24T06:08:34;14.80;;;7.73;;
1885;SDS011;943;51.568;6.998;2023-07-24T06:11:02;9.70;;;6.97;;
1885;SDS011;943;51.568;6.998;2023-07-24T06:13:32;10.63;;;7.27;;
1885;SDS011;943;51.568;6.998;2023-07-24T06:15:59;9.13;;;6.37;;
1885;SDS011;943;51.568;6.998;2023-07-24T06:18:27;8.87;;;6.23;;
1885;SDS011;943;51.568;6.998;2023-07-24T06:20:55;10.40;;;6.23;;
1885;SDS011;943;51.568;6.998;2023-07-24T06:23:23;9.00;;;5.70;;
1885;SDS011;943;51.568;6.998;2023-07-24T06:25:51;7.50;;;5.40;;
1885;SDS011;943;51.568;6.998;2023-07-24T06:28:20;12.93;;;6.50;;
1885;SDS011;943;51.568;6.998;2023-07-24T06:30:48;9.33;;;6.90;;
1885;SDS011;943;51.568;6.998;2023-07-24T06:33:20;11.47;;;8.30;;
1885;SDS011;943;51.568;6.998;2023-07-24T06:35:49;11.00;;;6.83;;
1885;SDS011;943;51.568;6.998;2023-07-24T06:38:19;12.77;;;8.50;;
1885;SDS011;943;51.568;6.998;2023-07-24T06:40:48;10.53;;;7.97;;
1885;SDS011;943;51.568;6.998;2023-07-24T06:43:17;9.03;;;6.70;;
1885;SDS011;943;51.568;6.998;2023-07-24T06:45:45;14.70;;;7.70;;
1885;SDS011;943;51.568;6.998;2023-07-24T06:48:12;13.30;;;7.50;;
1885;SDS011;943;51.568;6.998;2023-07-24T06:50:40;9.53;;;6.90;;
1885;SDS011;943;51.568;6.998;2023-07-24T06:53:09;14.80;;;6.90;;
1885;SDS011;943;51.568;6.998;2023-07-24T06:55:38;12.57;;;6.30;;
1885;SDS011;943;51.568;6.998;2023-07-24T06:58:06;11.20;;;5.80;;
1885;SDS011;943;51.568;6.998;2023-07-24T07:00:34;12.60;;;7.30;;
1885;SDS011;943;51.568;6.998;2023-07-24T07:03:02;14.93;;;7.07;;
1885;SDS011;943;51.568;6.998;2023-07-24T07:05:31;8.00;;;5.77;;
1885;SDS011;943;51.568;6.998;2023-07-24T07:07:59;8.63;;;5.47;;
1885;SDS011;943;51.568;6.998;2023-07-24T07:10:27;10.10;;;6.80;;
1885;SDS011;943;51.568;6.998;2023-07-24T07:12:57;17.37;;;7.10;;
1885;SDS011;943;51.568;6.998;2023-07-24T07:15:25;10.27;;;7.53;;
1885;SDS011;943;51.568;6.998;2023-07-24T07:17:53;10.47;;;7.60;;
1885;SDS011;943;51.568;6.998;2023-07-24T07:20:22;12.00;;;7.80;;
1885;SDS011;943;51.568;6.998;2023-07-24T07:22:51;13.43;;;7.97;;
1885;SDS011;943;51.568;6.998;2023-07-24T07:25:18;11.67;;;8.97;;
1885;SDS011;943;51.568;6.998;2023-07-24T07:27:46;13.80;;;9.93;;
1885;SDS011;943;51.568;6.998;2023-07-24T07:30:14;10.80;;;8.27;;
1885;SDS011;943;51.568;6.998;2023-07-24T07:32:43;9.67;;;5.30;;
1885;SDS011;943;51.568;6.998;2023-07-24T07:35:11;8.77;;;5.53;;
1885;SDS011;943;51.568;6.998;2023-07-24T07:37:39;9.00;;;5.73;;
1885;SDS011;943;51.568;6.998;2023-07-24T07:40:07;6.57;;;4.00;;
1885;SDS011;943;51.568;6.998;2023-07-24T07:42:35;9.07;;;4.80;;
1885;SDS011;943;51.568;6.998;2023-07-24T07:45:05;6.73;;;4.70;;
1885;SDS011;943;51.568;6.998;2023-07-24T07:47:34;7.00;;;4.27;;
1885;SDS011;943;51.568;6.998;2023-07-24T07:50:03;7.47;;;4.50;;
1885;SDS011;943;51.568;6.998;2023-07-24T07:52:32;5.73;;;4.20;;
1885;SDS011;943;51.568;6.998;2023-07-24T07:55:00;6.47;;;4.60;;
1885;SDS011;943;51.568;6.998;2023-07-24T07:57:28;8.80;;;4.50;;
1885;SDS011;943;51.568;6.998;2023-07-24T07:59:56;9.30;;;5.07;;
1885;SDS011;943;51.568;6.998;2023-07-24T08:02:24;6.60;;;5.33;;
1885;SDS011;943;51.568;6.998;2023-07-24T08:04:52;6.43;;;4.83;;
1885;SDS011;943;51.568;6.998;2023-07-24T08:07:20;6.00;;;5.07;;
1885;SDS011;943;51.568;6.998;2023-07-24T08:09:47;6.80;;;4.87;;
1885;SDS011;943;51.568;6.998;2023-07-24T08:12:16;6.90;;;4.30;;
1885;SDS011;943;51.568;6.998;2023-07-24T08:14:44;5.23;;;4.30;;
1885;SDS011;943;51.568;6.998;2023-07-24T08:17:12;6.60;;;5.30;;
1885;SDS011;943;51.568;6.998;2023-07-24T08:19:40;8.43;;;5.33;;
1885;SDS011;943;51.568;6.998;2023-07-24T08:22:08;8.00;;;6.57;;
1885;SDS011;943;51.568;6.998;2023-07-24T08:24:38;7.13;;;6.10;;
1885;SDS011;943;51.568;6.998;2023-07-24T08:27:07;7.77;;;6.70;;
1885;SDS011;943;51.568;6.998;2023-07-24T08:29:35;9.30;;;6.33;;
1885;SDS011;943;51.568;6.998;2023-07-24T08:32:04;7.97;;;5.50;;
1885;SDS011;943;51.568;6.998;2023-07-24T08:34:33;7.70;;;6.70;;
1885;SDS011;943;51.568;6.998;2023-07-24T08:37:01;11.13;;;7.10;;
1885;SDS011;943;51.568;6.998;2023-07-24T08:39:30;11.17;;;7.17;;
1885;SDS011;943;51.568;6.998;2023-07-24T08:41:58;10.00;;;7.40;;
1885;SDS011;943;51.568;6.998;2023-07-24T08:44:26;8.60;;;7.67;;
1885;SDS011;943;51.568;6.998;2023-07-24T08:46:57;9.57;;;6.80;;
1885;SDS011;943;51.568;6.998;2023-07-24T08:49:28;9.93;;;6.97;;
1885;SDS011;943;51.568;6.998;2023-07-24T08:51:57;7.60;;;4.93;;
1885;SDS011;943;51.568;6.998;2023-07-24T08:54:28;6.20;;;3.37;;
1885;SDS011;943;51.568;6.998;2023-07-24T08:56:59;4.93;;;2.43;;
1885;SDS011;943;51.568;6.998;2023-07-24T08:59:29;3.03;;;2.40;;
1885;SDS011;943;51.568;6.998;2023-07-24T09:01:56;3.50;;;2.03;;
1885;SDS011;943;51.568;6.998;2023-07-24T09:04:24;3.10;;;2.00;;
1885;SDS011;943;51.568;6.998;2023-07-24T09:06:53;4.10;;;2.00;;
1885;SDS011;943;51.568;6.998;2023-07-24T09:09:28;3.90;;;1.87;;
1885;SDS011;943;51.568;6.998;2023-07-24T09:11:58;2.70;;;1.70;;
1885;SDS011;943;51.568;6.998;2023-07-24T09:14:28;3.40;;;2.10;;
1885;SDS011;943;51.568;6.998;2023-07-24T09:17:05;4.23;;;2.37;;
1885;SDS011;943;51.568;6.998;2023-07-24T09:19:37;2.83;;;2.20;;
1885;SDS011;943;51.568;6.998;2023-07-24T09:24:51;4.30;;;2.93;;
1885;SDS011;943;51.568;6.998;2023-07-24T09:27:25;3.43;;;2.63;;
1885;SDS011;943;51.568;6.998;2023-07-24T09:29:58;5.10;;;3.90;;
1885;SDS011;943;51.568;6.998;2023-07-24T09:32:26;8.70;;;4.53;;
1885;SDS011;943;51.568;6.998;2023-07-24T09:34:57;5.97;;;5.00;;
1885;SDS011;943;51.568;6.998;2023-07-24T09:37:33;7.77;;;6.00;;
1885;SDS011;943;51.568;6.998;2023-07-24T09:40:05;9.03;;;5.10;;
1885;SDS011;943;51.568;6.998;2023-07-24T09:42:35;8.90;;;6.77;;
1885;SDS011;943;51.568;6.998;2023-07-24T09:45:26;6.83;;;5.80;;
1885;SDS011;943;51.568;6.998;2023-07-24T09:47:55;5.80;;;5.07;;
1885;SDS011;943;51.568;6.998;2023-07-24T09:50:34;7.73;;;5.00;;
1885;SDS011;943;51.568;6.998;2023-07-24T09:53:03;5.53;;;4.93;;
1885;SDS011;943;51.568;6.998;2023-07-24T09:55:43;5.23;;;3.40;;
1885;SDS011;943;51.568;6.998;2023-07-24T09:58:35;5.70;;;4.00;;
1885;SDS011;943;51.568;6.998;2023-07-24T10:01:08;6.80;;;3.20;;
1885;SDS011;943;51.568;6.998;2023-07-24T10:03:46;4.27;;;2.77;;
1885;SDS011;943;51.568;6.998;2023-07-24T10:06:16;3.60;;;2.87;;
1885;SDS011;943;51.568;6.998;2023-07-24T10:08:45;3.53;;;2.23;;
1885;SDS011;943;51.568;6.998;2023-07-24T10:11:14;4.03;;;2.40;;
1885;SDS011;943;51.568;6.998;2023-07-24T10:13:43;4.10;;;2.50;;
1885;SDS011;943;51.568;6.998;2023-07-24T10:16:13;4.00;;;2.50;;
1885;SDS011;943;51.568;6.998;2023-07-24T10:18:42;3.27;;;2.10;;
1885;SDS011;943;51.568;6.998;2023-07-24T10:21:13;3.00;;;1.63;;
1885;SDS011;943;51.568;6.998;2023-07-24T10:23:42;3.77;;;1.93;;
1885;SDS011;943;51.568;6.998;2023-07-24T10:26:15;5.07;;;1.70;;
1885;SDS011;943;51.568;6.998;2023-07-24T10:28:46;3.53;;;2.10;;
1885;SDS011;943;51.568;6.998;2023-07-24T10:31:19;4.10;;;2.50;;
1885;SDS011;943;51.568;6.998;2023-07-24T10:33:54;6.53;;;2.40;;
1885;SDS011;943;51.568;6.998;2023-07-24T10:36:23;3.40;;;2.10;;
1885;SDS011;943;51.568;6.998;2023-07-24T10:38:52;4.23;;;2.23;;
1885;SDS011;943;51.568;6.998;2023-07-24T10:41:33;3.97;;;2.50;;
1885;SDS011;943;51.568;6.998;2023-07-24T10:44:04;3.80;;;2.47;;
1885;SDS011;943;51.568;6.998;2023-07-24T10:46:39;4.93;;;3.40;;
1885;SDS011;943;51.568;6.998;2023-07-24T10:49:09;4.87;;;3.27;;
1885;SDS011;943;51.568;6.998;2023-07-24T10:51:38;4.20;;;3.40;;
1885;SDS011;943;51.568;6.998;2023-07-24T10:54:06;6.27;;;4.70;;
1885;SDS011;943;51.568;6.998;2023-07-24T10:56:36;6.30;;;5.03;;
1885;SDS011;943;51.568;6.998;2023-07-24T10:59:04;5.53;;;4.60;;
1885;SDS011;943;51.568;6.998;2023-07-24T11:01:33;9.40;;;6.00;;
1885;SDS011;943;51.568;6.998;2023-07-24T11:04:02;8.90;;;6.70;;
1885;SDS011;943;51.568;6.998;2023-07-24T11:06:30;9.30;;;7.50;;
1885;SDS011;943;51.568;6.998;2023-07-24T11:08:59;9.60;;;7.07;;
1885;SDS011;943;51.568;6.998;2023-07-24T11:11:31;9.03;;;6.70;;
1885;SDS011;943;51.568;6.998;2023-07-24T11:14:03;6.63;;;5.50;;
1885;SDS011;943;51.568;6.998;2023-07-24T11:16:31;6.27;;;5.40;;
1885;SDS011;943;51.568;6.998;2023-07-24T11:19:00;5.40;;;4.87;;
1885;SDS011;943;51.568;6.998;2023-07-24T11:21:28;6.03;;;5.23;;
1885;SDS011;943;51.568;6.998;2023-07-24T11:23:58;8.30;;;5.23;;
1885;SDS011;943;51.568;6.998;2023-07-24T11:26:26;9.00;;;5.20;;
1885;SDS011;943;51.568;6.998;2023-07-24T11:28:55;10.00;;;6.40;;
1885;SDS011;943;51.568;6.998;2023-07-24T11:31:23;8.87;;;6.50;;
1885;SDS011;943;51.568;6.998;2023-07-24T11:33:51;8.70;;;6.53;;
1885;SDS011;943;51.568;6.998;2023-07-24T11:36:20;7.70;;;4.83;;
1885;SDS011;943;51.568;6.998;2023-07-24T11:38:49;8.07;;;5.67;;
1885;SDS011;943;51.568;6.998;2023-07-24T11:41:17;9.27;;;6.47;;
1885;SDS011;943;51.568;6.998;2023-07-24T11:43:49;12.10;;;7.33;;
1885;SDS011;943;51.568;6.998;2023-07-24T11:46:27;7.00;;;5.80;;
1885;SDS011;943;51.568;6.998;2023-07-24T11:48:59;8.40;;;5.40;;
1885;SDS011;943;51.568;6.998;2023-07-24T11:51:27;7.70;;;5.20;;
1885;SDS011;943;51.568;6.998;2023-07-24T11:54:06;6.93;;;5.83;;
1885;SDS011;943;51.568;6.998;2023-07-24T11:56:38;5.47;;;4.23;;
1885;SDS011;943;51.568;6.998;2023-07-24T11:59:13;6.97;;;5.43;;
1885;SDS011;943;51.568;6.998;2023-07-24T12:01:45;7.80;;;5.50;;
1885;SDS011;943;51.568;6.998;2023-07-24T12:04:15;16.33;;;6.20;;
1885;SDS011;943;51.568;6.998;2023-07-24T12:06:44;6.60;;;5.90;;
1885;SDS011;943;51.568;6.998;2023-07-24T12:09:13;6.10;;;4.60;;
1885;SDS011;943;51.568;6.998;2023-07-24T12:11:42;7.60;;;5.67;;
1885;SDS011;943;51.568;6.998;2023-07-24T12:14:13;5.80;;;4.57;;
1885;SDS011;943;51.568;6.998;2023-07-24T12:16:41;6.00;;;5.10;;
1885;SDS011;943;51.568;6.998;2023-07-24T12:19:10;9.23;;;6.80;;
1885;SDS011;943;51.568;6.998;2023-07-24T12:21:38;8.10;;;6.20;;
1885;SDS011;943;51.568;6.998;2023-07-24T12:24:07;14.20;;;6.90;;
1885;SDS011;943;51.568;6.998;2023-07-24T12:26:35;7.90;;;6.43;;
1885;SDS011;943;51.568;6.998;2023-07-24T12:29:03;6.80;;;5.53;;
1885;SDS011;943;51.568;6.998;2023-07-24T12:31:31;7.13;;;4.90;;
1885;SDS011;943;51.568;6.998;2023-07-24T12:34:00;5.80;;;4.33;;
1885;SDS011;943;51.568;6.998;2023-07-24T12:36:28;5.63;;;3.70;;
1885;SDS011;943;51.568;6.998;2023-07-24T12:38:56;5.40;;;3.67;;
1885;SDS011;943;51.568;6.998;2023-07-24T12:41:24;4.97;;;3.30;;
1885;SDS011;943;51.568;6.998;2023-07-24T12:43:51;5.40;;;2.90;;
1885;SDS011;943;51.568;6.998;2023-07-24T12:46:20;5.53;;;2.60;;
1885;SDS011;943;51.568;6.998;2023-07-24T12:48:48;5.83;;;3.00;;
1885;SDS011;943;51.568;6.998;2023-07-24T12:51:16;6.47;;;3.87;;
1885;SDS011;943;51.568;6.998;2023-07-24T12:53:44;6.63;;;3.47;;
1885;SDS011;943;51.568;6.998;2023-07-24T12:56:32;4.97;;;3.40;;
1885;SDS011;943;51.568;6.998;2023-07-24T12:59:01;6.37;;;3.30;;
1885;SDS011;943;51.568;6.998;2023-07-24T13:01:30;5.90;;;3.60;;
1885;SDS011;943;51.568;6.998;2023-07-24T13:03:58;4.20;;;3.30;;
1885;SDS011;943;51.568;6.998;2023-07-24T13:06:26;4.67;;;3.47;;
1885;SDS011;943;51.568;6.998;2023-07-24T13:08:55;6.50;;;4.40;;
1885;SDS011;943;51.568;6.998;2023-07-24T13:11:23;4.87;;;3.77;;
1885;SDS011;943;51.568;6.998;2023-07-24T13:13:51;5.07;;;4.30;;
1885;SDS011;943;51.568;6.998;2023-07-24T13:16:19;3.93;;;3.23;;
1885;SDS011;943;51.568;6.998;2023-07-24T13:18:49;6.77;;;4.30;;
1885;SDS011;943;51.568;6.998;2023-07-24T13:21:16;3.87;;;3.23;;
1885;SDS011;943;51.568;6.998;2023-07-24T13:23:45;4.07;;;3.10;;
1885;SDS011;943;51.568;6.998;2023-07-24T13:26:13;4.70;;;3.27;;
1885;SDS011;943;51.568;6.998;2023-07-24T13:28:43;5.87;;;4.37;;
1885;SDS011;943;51.568;6.998;2023-07-24T13:31:17;4.37;;;3.70;;
1885;SDS011;943;51.568;6.998;2023-07-24T13:33:48;6.37;;;4.13;;
1885;SDS011;943;51.568;6.998;2023-07-24T13:36:17;6.87;;;4.00;;
1885;SDS011;943;51.568;6.998;2023-07-24T13:38:45;10.70;;;4.77;;
1885;SDS011;943;51.568;6.998;2023-07-24T13:41:13;5.40;;;4.30;;
1885;SDS011;943;51.568;6.998;2023-07-24T13:43:41;6.67;;;4.57;;
1885;SDS011;943;51.568;6.998;2023-07-24T13:46:09;6.33;;;4.60;;
1885;SDS011;943;51.568;6.998;2023-07-24T13:48:38;7.17;;;5.20;;
1885;SDS011;943;51.568;6.998;2023-07-24T13:51:06;8.30;;;4.90;;
1885;SDS011;943;51.568;6.998;2023-07-24T13:53:34;5.80;;;4.70;;
1885;SDS011;943;51.568;6.998;2023-07-24T13:56:03;5.97;;;4.80;;
1885;SDS011;943;51.568;6.998;2023-07-24T13:58:32;6.60;;;4.10;;
1885;SDS011;943;51.568;6.998;2023-07-24T14:01:01;5.27;;;4.00;;
1885;SDS011;943;51.568;6.998;2023-07-24T14:03:29;6.10;;;4.40;;
1885;SDS011;943;51.568;6.998;2023-07-24T14:05:57;4.77;;;3.90;;
1885;SDS011;943;51.568;6.998;2023-07-24T14:08:25;6.30;;;4.50;;
1885;SDS011;943;51.568;6.998;2023-07-24T14:10:53;7.00;;;4.50;;
1885;SDS011;943;51.568;6.998;2023-07-24T14:13:21;4.40;;;3.10;;
1885;SDS011;943;51.568;6.998;2023-07-24T14:15:49;4.13;;;3.23;;
1885;SDS011;943;51.568;6.998;2023-07-24T14:18:18;4.33;;;3.53;;
1885;SDS011;943;51.568;6.998;2023-07-24T14:20:46;3.73;;;2.93;;
1885;SDS011;943;51.568;6.998;2023-07-24T14:23:14;4.83;;;3.13;;
1885;SDS011;943;51.568;6.998;2023-07-24T14:25:42;4.30;;;2.90;;
1885;SDS011;943;51.568;6.998;2023-07-24T14:28:10;2.70;;;2.30;;
1885;SDS011;943;51.568;6.998;2023-07-24T14:30:38;5.50;;;3.30;;
1885;SDS011;943;51.568;6.998;2023-07-24T14:33:06;3.93;;;2.87;;
1885;SDS011;943;51.568;6.998;2023-07-24T14:35:35;3.97;;;2.27;;
1885;SDS011;943;51.568;6.998;2023-07-24T14:38:03;5.03;;;3.30;;
1885;SDS011;943;51.568;6.998;2023-07-24T14:40:31;5.50;;;3.30;;
1885;SDS011;943;51.568;6.998;2023-07-24T14:42:59;4.70;;;3.00;;
1885;SDS011;943;51.568;6.998;2023-07-24T14:45:32;6.70;;;2.70;;
1885;SDS011;943;51.568;6.998;2023-07-24T14:48:00;3.30;;;2.50;;
1885;SDS011;943;51.568;6.998;2023-07-24T14:50:28;4.27;;;2.93;;
1885;SDS011;943;51.568;6.998;2023-07-24T14:52:56;3.20;;;2.43;;
1885;SDS011;943;51.568;6.998;2023-07-24T14:55:24;4.97;;;3.00;;
1885;SDS011;943;51.568;6.998;2023-07-24T14:57:52;3.40;;;2.00;;
1885;SDS011;943;51.568;6.998;2023-07-24T15:00:20;3.83;;;2.63;;
1885;SDS011;943;51.568;6.998;2023-07-24T15:02:49;6.60;;;2.70;;
1885;SDS011;943;51.568;6.998;2023-07-24T15:05:17;3.63;;;2.50;;
1885;SDS011;943;51.568;6.998;2023-07-24T15:07:45;4.33;;;2.97;;
1885;SDS011;943;51.568;6.998;2023-07-24T15:10:13;3.50;;;2.47;;
1885;SDS011;943;51.568;6.998;2023-07-24T15:12:42;4.13;;;2.80;;
1885;SDS011;943;51.568;6.998;2023-07-24T15:15:10;3.80;;;2.63;;
1885;SDS011;943;51.568;6.998;2023-07-24T15:17:37;3.43;;;2.60;;
1885;SDS011;943;51.568;6.998;2023-07-24T15:20:06;4.30;;;3.40;;
1885;SDS011;943;51.568;6.998;2023-07-24T15:22:35;4.20;;;2.90;;
1885;SDS011;943;51.568;6.998;2023-07-24T15:25:03;4.63;;;3.30;;
1885;SDS011;943;51.568;6.998;2023-07-24T15:27:32;6.10;;;3.10;;
1885;SDS011;943;51.568;6.998;2023-07-24T15:30:00;4.10;;;3.13;;
1885;SDS011;943;51.568;6.998;2023-07-24T15:32:28;4.87;;;3.77;;
1885;SDS011;943;51.568;6.998;2023-07-24T15:34:56;5.50;;;4.60;;
1885;SDS011;943;51.568;6.998;2023-07-24T15:37:27;6.63;;;4.97;;
1885;SDS011;943;51.568;6.998;2023-07-24T15:39:58;9.80;;;5.30;;
1885;SDS011;943;51.568;6.998;2023-07-24T15:42:26;12.10;;;4.90;;